Time;durP1;ratioP1;P1;durP2;ratioP2;P2;SDS_P1;SDS_P2;PMS_P1;PMS_P2;Temp;Humidity;BMP_temperature;BMP_pressure;BME280_temperature;BME280_humidity;BME280_pressure;Samples;Min_cycle;Max_cycle;Signal;HPM_P1;HPM_P2
2022/01/07 00:00:53;;;;;;;2.92;1.13;;;;;;;;;;5097596;28;20011;-70
2022/01/07 00:03:18;;;;;;;2.05;0.50;;;;;;;;;;5097875;28;20012;-70
2022/01/07 00:05:44;;;;;;;1.45;0.50;;;;;;;;;;5097559;28;20072;-70
2022/01/07 00:08:09;;;;;;;1.10;0.50;;;;;;;;;;5096922;28;20048;-69
2022/01/07 00:10:38;;;;;;;3.28;0.50;;;;;;;;;;5097543;28;20286;-69
2022/01/07 00:13:03;;;;;;;0.43;0.43;;;;;;;;;;5097511;28;20017;-70
2022/01/07 00:15:29;;;;;;;1.67;0.50;;;;;;;;;;5097458;28;20047;-69
2022/01/07 00:17:54;;;;;;;0.70;0.50;;;;;;;;;;5098434;28;20063;-70
2022/01/07 00:20:20;;;;;;;1.83;0.40;;;;;;;;;;5100665;28;20008;-69
2022/01/07 00:22:48;;;;;;;4.43;0.80;;;;;;;;;;5101445;28;20016;-70
2022/01/07 00:25:14;;;;;;;1.95;0.70;;;;;;;;;;5101615;28;20028;-69
2022/01/07 00:27:40;;;;;;;2.78;0.43;;;;;;;;;;5100567;28;20020;-70
2022/01/07 00:30:07;;;;;;;4.47;0.85;;;;;;;;;;5101420;28;20253;-70
2022/01/07 00:32:33;;;;;;;3.03;0.60;;;;;;;;;;5101343;28;20008;-69
2022/01/07 00:34:58;;;;;;;1.48;0.60;;;;;;;;;;5101251;28;20030;-70
2022/01/07 00:37:24;;;;;;;1.67;1.40;;;;;;;;;;5117206;28;20084;-70
2022/01/07 00:39:49;;;;;;;2.20;0.50;;;;;;;;;;5100644;28;20013;-70
2022/01/07 00:42:15;;;;;;;2.42;0.60;;;;;;;;;;5100882;28;20008;-69
2022/01/07 00:44:41;;;;;;;3.50;0.77;;;;;;;;;;5101069;28;20022;-70
2022/01/07 00:47:06;;;;;;;3.00;0.70;;;;;;;;;;5100976;28;20028;-70
2022/01/07 00:49:33;;;;;;;4.78;0.55;;;;;;;;;;5100958;28;20072;-70
2022/01/07 00:51:59;;;;;;;1.77;0.60;;;;;;;;;;5100300;28;20020;-69
2022/01/07 00:54:25;;;;;;;1.90;0.63;;;;;;;;;;5100179;28;20008;-70
2022/01/07 00:56:51;;;;;;;2.42;0.70;;;;;;;;;;5100751;28;20040;-70
2022/01/07 00:59:16;;;;;;;4.07;0.50;;;;;;;;;;5100862;28;20009;-71
2022/01/07 01:01:41;;;;;;;0.90;0.50;;;;;;;;;;5100621;28;20019;-70
2022/01/07 01:04:07;;;;;;;2.40;0.77;;;;;;;;;;5100957;28;20052;-70
2022/01/07 01:06:33;;;;;;;3.00;0.65;;;;;;;;;;5100638;28;20025;-70
2022/01/07 01:08:58;;;;;;;3.17;0.98;;;;;;;;;;5100644;28;20032;-69
2022/01/07 01:11:24;;;;;;;7.40;0.82;;;;;;;;;;5100664;28;20031;-70
2022/01/07 01:13:49;;;;;;;4.13;0.80;;;;;;;;;;5100588;28;20025;-71
2022/01/07 01:16:14;;;;;;;3.15;0.80;;;;;;;;;;5099701;28;20018;-70
2022/01/07 01:18:40;;;;;;;2.10;0.47;;;;;;;;;;5100614;28;20027;-69
2022/01/07 01:21:05;;;;;;;2.40;0.73;;;;;;;;;;5100346;28;20039;-70
2022/01/07 01:23:32;;;;;;;1.67;0.70;;;;;;;;;;5099608;28;20005;-69
2022/01/07 01:25:58;;;;;;;1.48;0.57;;;;;;;;;;5100502;28;20020;-70
2022/01/07 01:28:23;;;;;;;0.85;0.50;;;;;;;;;;5099575;28;20039;-70
2022/01/07 01:30:49;;;;;;;1.75;0.50;;;;;;;;;;5099175;28;20013;-69
2022/01/07 01:33:14;;;;;;;1.40;0.50;;;;;;;;;;5100252;28;20019;-69
2022/01/07 01:35:40;;;;;;;5.07;0.52;;;;;;;;;;5099413;28;20025;-71
2022/01/07 01:38:05;;;;;;;3.03;0.32;;;;;;;;;;5099952;28;20088;-69
2022/01/07 01:40:31;;;;;;;2.60;0.90;;;;;;;;;;5100110;28;20134;-69
2022/01/07 01:42:57;;;;;;;2.28;0.47;;;;;;;;;;5099909;28;20020;-70
2022/01/07 01:45:24;;;;;;;2.88;0.60;;;;;;;;;;5100020;28;20004;-70
2022/01/07 01:47:53;;;;;;;5.32;0.73;;;;;;;;;;5099184;28;20017;-69
2022/01/07 01:50:18;;;;;;;0.73;0.47;;;;;;;;;;5099212;28;20012;-69
2022/01/07 01:52:47;;;;;;;5.75;0.80;;;;;;;;;;5099913;28;20042;-70
2022/01/07 01:55:14;;;;;;;1.98;0.50;;;;;;;;;;5099850;28;20012;-69
2022/01/07 01:57:39;;;;;;;4.28;0.70;;;;;;;;;;5099761;28;20056;-69
2022/01/07 02:00:09;;;;;;;2.78;0.60;;;;;;;;;;5099741;28;20031;-70
2022/01/07 02:02:34;;;;;;;4.05;0.88;;;;;;;;;;5099356;28;20050;-70
2022/01/07 02:04:59;;;;;;;2.70;1.05;;;;;;;;;;5099547;28;20064;-70
2022/01/07 02:07:27;;;;;;;2.08;0.52;;;;;;;;;;5099560;28;20008;-69
2022/01/07 02:09:54;;;;;;;0.38;0.38;;;;;;;;;;5099522;28;20008;-70
2022/01/07 02:12:20;;;;;;;2.33;0.70;;;;;;;;;;5115724;28;20013;-70
2022/01/07 02:14:53;;;;;;;5.00;0.70;;;;;;;;;;5099491;28;20020;-69
2022/01/07 02:17:19;;;;;;;2.60;1.08;;;;;;;;;;5098452;28;20017;-70
2022/01/07 02:19:44;;;;;;;0.80;0.60;;;;;;;;;;5099219;28;20068;-70
2022/01/07 02:22:12;;;;;;;2.45;0.63;;;;;;;;;;5099101;28;20040;-70
2022/01/07 02:24:37;;;;;;;2.10;0.65;;;;;;;;;;5099303;28;20042;-69
2022/01/07 02:27:03;;;;;;;1.40;0.52;;;;;;;;;;5099240;28;20009;-69
2022/01/07 02:29:29;;;;;;;4.75;0.80;;;;;;;;;;5099105;28;20012;-70
2022/01/07 02:31:54;;;;;;;2.40;0.63;;;;;;;;;;5099135;28;20016;-69
2022/01/07 02:34:20;;;;;;;0.95;0.50;;;;;;;;;;5098332;28;20019;-70
2022/01/07 02:36:45;;;;;;;0.47;0.40;;;;;;;;;;5114993;28;20020;-70
2022/01/07 02:39:11;;;;;;;1.20;0.50;;;;;;;;;;5098356;28;20046;-70
2022/01/07 02:41:36;;;;;;;1.42;0.60;;;;;;;;;;5098313;28;20076;-70
2022/01/07 02:44:02;;;;;;;2.80;0.60;;;;;;;;;;5098083;28;20036;-70
2022/01/07 02:46:28;;;;;;;3.45;0.80;;;;;;;;;;5097964;28;20070;-70
2022/01/07 02:48:54;;;;;;;1.85;0.60;;;;;;;;;;5098837;28;20013;-70
2022/01/07 02:51:20;;;;;;;1.15;0.50;;;;;;;;;;5097841;28;20039;-69
2022/01/07 02:53:45;;;;;;;0.63;0.52;;;;;;;;;;5098806;28;20081;-69
2022/01/07 02:56:11;;;;;;;1.73;0.47;;;;;;;;;;5098594;28;20012;-69
2022/01/07 02:58:37;;;;;;;0.95;0.60;;;;;;;;;;5097902;28;20027;-69
2022/01/07 03:01:03;;;;;;;0.68;0.40;;;;;;;;;;5097795;28;20042;-70
2022/01/07 03:03:29;;;;;;;1.60;0.80;;;;;;;;;;5097733;28;20153;-69
2022/01/07 03:05:54;;;;;;;1.70;0.60;;;;;;;;;;5097916;28;20013;-70
2022/01/07 03:08:20;;;;;;;3.15;0.60;;;;;;;;;;5098440;28;20068;-70
2022/01/07 03:10:45;;;;;;;1.73;0.40;;;;;;;;;;5098282;28;20016;-70
2022/01/07 03:13:11;;;;;;;4.45;0.68;;;;;;;;;;5098213;28;20013;-69
2022/01/07 03:15:37;;;;;;;4.90;0.50;;;;;;;;;;5097383;28;20020;-69
2022/01/07 03:18:05;;;;;;;2.85;0.68;;;;;;;;;;5097406;28;20020;-70
2022/01/07 03:20:30;;;;;;;0.93;0.63;;;;;;;;;;5098052;28;20035;-69
2022/01/07 03:22:56;;;;;;;0.38;0.32;;;;;;;;;;5097376;28;20020;-70
2022/01/07 03:25:22;;;;;;;0.50;0.35;;;;;;;;;;5098151;28;20004;-69
2022/01/07 03:27:47;;;;;;;1.90;0.73;;;;;;;;;;5097941;28;20034;-69
2022/01/07 03:30:15;;;;;;;0.43;0.32;;;;;;;;;;5097955;28;20036;-69
2022/01/07 03:32:41;;;;;;;0.57;0.32;;;;;;;;;;5098019;28;20012;-69
2022/01/07 03:35:12;;;;;;;0.35;0.35;;;;;;;;;;5097904;28;20008;-70
2022/01/07 03:37:41;;;;;;;1.77;0.50;;;;;;;;;;5097190;28;20024;-70
2022/01/07 03:40:09;;;;;;;0.80;0.40;;;;;;;;;;5097981;28;20047;-69
2022/01/07 03:42:34;;;;;;;0.50;0.40;;;;;;;;;;5098123;28;20036;-69
2022/01/07 03:45:00;;;;;;;1.65;0.60;;;;;;;;;;5098061;28;20015;-70
2022/01/07 03:47:27;;;;;;;1.83;0.95;;;;;;;;;;5097213;28;20024;-70
2022/01/07 03:49:52;;;;;;;1.38;0.70;;;;;;;;;;5097904;28;20023;-69
2022/01/07 03:52:17;;;;;;;0.93;0.63;;;;;;;;;;5097187;28;20016;-70
2022/01/07 03:54:44;;;;;;;1.23;0.43;;;;;;;;;;5097609;28;20005;-70
2022/01/07 03:57:09;;;;;;;0.70;0.40;;;;;;;;;;5097789;28;20008;-70
2022/01/07 03:59:35;;;;;;;0.63;0.35;;;;;;;;;;5097702;28;20009;-69
2022/01/07 04:02:00;;;;;;;1.42;0.70;;;;;;;;;;5096944;28;20017;-69
2022/01/07 04:04:25;;;;;;;2.47;1.00;;;;;;;;;;5097748;28;20269;-69
2022/01/07 04:06:51;;;;;;;1.48;0.47;;;;;;;;;;5096922;28;20028;-70
2022/01/07 04:09:16;;;;;;;3.20;0.80;;;;;;;;;;5097611;28;20029;-70
2022/01/07 04:11:41;;;;;;;1.58;0.52;;;;;;;;;;5097720;28;20013;-69
2022/01/07 04:14:07;;;;;;;0.90;0.75;;;;;;;;;;5097619;28;20012;-70
2022/01/07 04:16:32;;;;;;;5.57;0.70;;;;;;;;;;5097446;28;20013;-70
2022/01/07 04:18:57;;;;;;;3.97;0.65;;;;;;;;;;5097529;28;20043;-69
2022/01/07 04:21:23;;;;;;;3.20;0.85;;;;;;;;;;5097363;28;20035;-70
2022/01/07 04:23:48;;;;;;;5.03;1.02;;;;;;;;;;5097513;28;20039;-69
2022/01/07 04:26:13;;;;;;;1.90;0.70;;;;;;;;;;5113698;28;20020;-70
2022/01/07 04:28:39;;;;;;;1.23;0.50;;;;;;;;;;5096855;28;20051;-69
2022/01/07 04:31:04;;;;;;;1.27;0.63;;;;;;;;;;5097520;28;20031;-69
2022/01/07 04:33:32;;;;;;;1.30;0.50;;;;;;;;;;5097295;28;20032;-69
2022/01/07 04:35:58;;;;;;;1.20;0.50;;;;;;;;;;5097494;28;20029;-70
2022/01/07 04:38:24;;;;;;;1.50;0.65;;;;;;;;;;5096492;28;20084;-69
2022/01/07 04:40:49;;;;;;;0.40;0.32;;;;;;;;;;5096543;28;20024;-70
2022/01/07 04:43:15;;;;;;;1.92;0.60;;;;;;;;;;5097413;28;20005;-70
2022/01/07 04:45:41;;;;;;;7.15;0.77;;;;;;;;;;5096601;28;20009;-70
2022/01/07 04:48:08;;;;;;;2.10;0.60;;;;;;;;;;5097520;28;20030;-70
2022/01/07 04:50:37;;;;;;;3.90;0.50;;;;;;;;;;5097250;28;20036;-70
2022/01/07 04:53:04;;;;;;;1.90;0.47;;;;;;;;;;5097038;28;20291;-69
2022/01/07 04:55:37;;;;;;;1.35;0.68;;;;;;;;;;5097015;28;20008;-69
2022/01/07 04:58:08;;;;;;;4.82;0.77;;;;;;;;;;5096987;28;20009;-70
2022/01/07 05:00:37;;;;;;;2.88;0.65;;;;;;;;;;5096526;28;20013;-70
2022/01/07 05:03:03;;;;;;;0.60;0.52;;;;;;;;;;5097064;28;20040;-69
2022/01/07 05:05:29;;;;;;;2.88;0.60;;;;;;;;;;5100411;28;20016;-69
2022/01/07 05:07:54;;;;;;;1.08;0.60;;;;;;;;;;5100741;28;20012;-70
2022/01/07 05:10:20;;;;;;;1.05;0.70;;;;;;;;;;5099814;28;20012;-70
2022/01/07 05:12:46;;;;;;;0.93;0.30;;;;;;;;;;5100587;28;20005;-69
2022/01/07 05:15:13;;;;;;;1.60;0.60;;;;;;;;;;5100665;28;20012;-70
2022/01/07 05:17:38;;;;;;;1.98;0.80;;;;;;;;;;5100514;28;20024;-70
2022/01/07 05:20:04;;;;;;;0.50;0.50;;;;;;;;;;5100594;28;20009;-70
2022/01/07 05:22:30;;;;;;;0.75;0.40;;;;;;;;;;5099531;28;20360;-70
2022/01/07 05:24:55;;;;;;;1.55;0.68;;;;;;;;;;5100454;28;20017;-70
2022/01/07 05:27:21;;;;;;;0.98;0.73;;;;;;;;;;5100415;28;20013;-70
2022/01/07 05:29:46;;;;;;;2.05;0.50;;;;;;;;;;5100491;28;20008;-70
2022/01/07 05:32:12;;;;;;;2.30;0.82;;;;;;;;;;5100364;28;20017;-70
2022/01/07 05:34:38;;;;;;;3.95;0.52;;;;;;;;;;5100368;28;20064;-70
2022/01/07 05:37:04;;;;;;;2.75;0.60;;;;;;;;;;5100022;28;20028;-70
2022/01/07 05:39:29;;;;;;;1.65;0.70;;;;;;;;;;5099961;28;20055;-70
2022/01/07 05:41:55;;;;;;;0.47;0.47;;;;;;;;;;5099166;28;20009;-70
2022/01/07 05:44:21;;;;;;;0.98;0.60;;;;;;;;;;5100078;28;20028;-69
2022/01/07 05:46:47;;;;;;;0.55;0.50;;;;;;;;;;5100040;28;20027;-69
2022/01/07 05:49:13;;;;;;;1.08;0.50;;;;;;;;;;5100023;28;20013;-70
2022/01/07 05:51:41;;;;;;;2.10;0.90;;;;;;;;;;5099418;28;20021;-69
2022/01/07 05:54:06;;;;;;;0.88;0.60;;;;;;;;;;5100007;28;20028;-70
2022/01/07 05:56:31;;;;;;;1.10;0.50;;;;;;;;;;5099921;28;20016;-70
2022/01/07 05:58:57;;;;;;;1.73;0.70;;;;;;;;;;5099651;28;20016;-70
2022/01/07 06:01:22;;;;;;;2.05;0.90;;;;;;;;;;5099718;28;20013;-70
2022/01/07 06:03:48;;;;;;;2.53;0.82;;;;;;;;;;5099690;28;20307;-70
2022/01/07 06:06:13;;;;;;;2.38;0.60;;;;;;;;;;5099482;28;20022;-70
2022/01/07 06:08:39;;;;;;;3.35;0.47;;;;;;;;;;5098713;28;20016;-70
2022/01/07 06:11:04;;;;;;;1.45;0.75;;;;;;;;;;5099497;28;20016;-70
2022/01/07 06:13:30;;;;;;;2.40;0.63;;;;;;;;;;5099443;28;20152;-69
2022/01/07 06:15:55;;;;;;;0.75;0.50;;;;;;;;;;5099069;28;20020;-69
2022/01/07 06:18:20;;;;;;;0.73;0.60;;;;;;;;;;5099475;28;20005;-70
2022/01/07 06:20:46;;;;;;;1.50;0.70;;;;;;;;;;5099435;28;20016;-69
2022/01/07 06:23:11;;;;;;;2.83;0.77;;;;;;;;;;5099174;28;20016;-69
2022/01/07 06:25:37;;;;;;;0.95;0.43;;;;;;;;;;5098701;28;20005;-70
2022/01/07 06:28:02;;;;;;;1.63;0.90;;;;;;;;;;5099009;28;20004;-69
2022/01/07 06:30:28;;;;;;;1.30;0.45;;;;;;;;;;5098338;28;20005;-70
2022/01/07 06:32:53;;;;;;;0.73;0.60;;;;;;;;;;5099010;28;20021;-70
2022/01/07 06:35:19;;;;;;;1.63;0.50;;;;;;;;;;5099002;28;20072;-70
2022/01/07 06:37:44;;;;;;;3.60;0.90;;;;;;;;;;5098534;28;20024;-70
2022/01/07 06:40:10;;;;;;;0.75;0.40;;;;;;;;;;5098846;28;20012;-70
2022/01/07 06:42:36;;;;;;;0.38;0.38;;;;;;;;;;5098719;28;20016;-70
2022/01/07 06:45:04;;;;;;;1.13;0.60;;;;;;;;;;5098180;28;20076;-70
2022/01/07 06:47:29;;;;;;;2.72;0.75;;;;;;;;;;5098683;28;20019;-70
2022/01/07 06:49:55;;;;;;;4.38;0.77;;;;;;;;;;5098563;28;20008;-70
2022/01/07 06:52:20;;;;;;;0.85;0.63;;;;;;;;;;5098604;28;20019;-70
2022/01/07 06:54:46;;;;;;;1.17;0.70;;;;;;;;;;5098621;28;20034;-70
2022/01/07 06:57:11;;;;;;;2.55;1.08;;;;;;;;;;5098544;28;20021;-70
2022/01/07 06:59:36;;;;;;;1.63;1.23;;;;;;;;;;5098385;28;20031;-70
2022/01/07 07:02:02;;;;;;;2.78;1.38;;;;;;;;;;5097425;28;20013;-70
2022/01/07 07:04:28;;;;;;;3.15;0.90;;;;;;;;;;5098369;28;20039;-70
2022/01/07 07:06:54;;;;;;;0.68;0.65;;;;;;;;;;5098454;28;20035;-70
2022/01/07 07:09:20;;;;;;;4.10;1.40;;;;;;;;;;5098393;28;20080;-69
2022/01/07 07:11:46;;;;;;;9.48;3.20;;;;;;;;;;5098230;28;20019;-70
2022/01/07 07:14:12;;;;;;;14.00;4.70;;;;;;;;;;5097686;28;20030;-70
2022/01/07 07:16:38;;;;;;;5.72;3.35;;;;;;;;;;5098051;28;20019;-70
2022/01/07 07:19:03;;;;;;;8.60;2.28;;;;;;;;;;5098148;28;20008;-70
2022/01/07 07:21:28;;;;;;;7.82;2.65;;;;;;;;;;5098095;28;20020;-69
2022/01/07 07:23:54;;;;;;;4.38;1.90;;;;;;;;;;5097886;28;20020;-70
2022/01/07 07:26:19;;;;;;;6.15;1.95;;;;;;;;;;5098066;28;20023;-70
2022/01/07 07:28:46;;;;;;;5.85;2.13;;;;;;;;;;5096315;28;20020;-70
2022/01/07 07:31:15;;;;;;;8.18;3.47;;;;;;;;;;5097937;28;20032;-70
2022/01/07 07:36:32;;;;;;;4.50;0.98;;;;;;;;;;5097900;28;20008;-70
2022/01/07 07:39:07;;;;;;;3.22;1.20;;;;;;;;;;5096285;28;20054;-69
2022/01/07 07:41:34;;;;;;;4.45;1.38;;;;;;;;;;5098084;28;20009;-70
2022/01/07 07:44:00;;;;;;;4.85;1.15;;;;;;;;;;5098259;28;20009;-70
2022/01/07 07:46:27;;;;;;;2.55;0.95;;;;;;;;;;5098208;28;20023;-70
2022/01/07 07:48:53;;;;;;;2.03;1.05;;;;;;;;;;5098080;28;20004;-70
2022/01/07 07:51:19;;;;;;;3.05;1.25;;;;;;;;;;5098053;28;20044;-70
2022/01/07 07:53:45;;;;;;;1.20;0.95;;;;;;;;;;5098101;28;20020;-70
2022/01/07 07:56:13;;;;;;;1.90;1.00;;;;;;;;;;5098114;28;20012;-69
2022/01/07 07:58:39;;;;;;;2.50;1.27;;;;;;;;;;5098236;28;20033;-70
2022/01/07 08:01:05;;;;;;;1.80;1.00;;;;;;;;;;5097940;28;20009;-70
2022/01/07 08:03:30;;;;;;;4.40;1.08;;;;;;;;;;5098195;28;20019;-70
2022/01/07 08:05:56;;;;;;;3.35;0.90;;;;;;;;;;5098095;28;20044;-70
2022/01/07 08:08:21;;;;;;;3.53;0.90;;;;;;;;;;5097981;28;20013;-70
2022/01/07 08:10:50;;;;;;;1.83;1.00;;;;;;;;;;5097228;28;20005;-70
2022/01/07 08:13:30;;;;;;;3.88;1.90;;;;;;;;;;5097199;28;20012;-70
2022/01/07 08:16:04;;;;;;;8.82;1.65;;;;;;;;;;5098002;28;20013;-70
2022/01/07 08:18:32;;;;;;;6.40;2.53;;;;;;;;;;5097322;28;20024;-70
2022/01/07 08:21:06;;;;;;;5.25;2.88;;;;;;;;;;5096474;28;20034;-70
2022/01/07 08:23:33;;;;;;;6.75;2.30;;;;;;;;;;5097336;28;20008;-70
2022/01/07 08:25:59;;;;;;;3.70;1.70;;;;;;;;;;5097308;28;20020;-70
2022/01/07 08:28:28;;;;;;;3.75;1.40;;;;;;;;;;5097300;28;20019;-70
2022/01/07 08:36:17;;;;;;;2.70;1.20;;;;;;;;;;5097134;28;20027;-70
2022/01/07 08:38:44;;;;;;;1.90;0.80;;;;;;;;;;5097550;28;20033;-70
2022/01/07 08:41:10;;;;;;;2.47;1.20;;;;;;;;;;5100362;28;20091;-71
2022/01/07 08:43:35;;;;;;;3.22;1.48;;;;;;;;;;5100475;28;20016;-70
2022/01/07 08:46:01;;;;;;;4.13;1.20;;;;;;;;;;5100961;28;20044;-70
2022/01/07 08:48:28;;;;;;;2.20;1.00;;;;;;;;;;5101051;28;20031;-70
2022/01/07 08:50:53;;;;;;;2.80;1.33;;;;;;;;;;5100708;28;20024;-71
2022/01/07 08:53:19;;;;;;;5.15;1.40;;;;;;;;;;5100706;28;20032;-70
2022/01/07 08:55:45;;;;;;;3.63;1.38;;;;;;;;;;5100672;28;20012;-70
2022/01/07 08:58:10;;;;;;;5.13;1.10;;;;;;;;;;5100385;28;20013;-70
2022/01/07 09:00:36;;;;;;;5.60;1.40;;;;;;;;;;5100501;28;20012;-71
2022/01/07 09:03:01;;;;;;;3.28;1.45;;;;;;;;;;5099288;28;20092;-70
2022/01/07 09:05:27;;;;;;;2.33;1.33;;;;;;;;;;5100553;28;20008;-70
2022/01/07 09:07:52;;;;;;;5.68;1.38;;;;;;;;;;5100241;28;20020;-70
2022/01/07 09:10:18;;;;;;;2.47;1.40;;;;;;;;;;5100378;28;20016;-70
2022/01/07 09:12:44;;;;;;;7.13;1.90;;;;;;;;;;5099683;28;20020;-70
2022/01/07 09:15:10;;;;;;;3.35;1.30;;;;;;;;;;5099598;28;20016;-70
2022/01/07 09:17:35;;;;;;;2.92;0.90;;;;;;;;;;5099539;28;20011;-70
2022/01/07 09:20:02;;;;;;;4.22;1.27;;;;;;;;;;5100160;28;20019;-70
2022/01/07 09:22:28;;;;;;;1.98;1.38;;;;;;;;;;5100358;28;20072;-71
2022/01/07 09:24:53;;;;;;;3.85;1.52;;;;;;;;;;5099596;28;20030;-70
2022/01/07 09:27:19;;;;;;;2.55;1.25;;;;;;;;;;5100259;28;20016;-70
2022/01/07 09:29:44;;;;;;;8.23;1.67;;;;;;;;;;5099594;28;20012;-71
2022/01/07 09:32:09;;;;;;;3.63;1.50;;;;;;;;;;5099186;28;20023;-71
2022/01/07 09:34:36;;;;;;;4.65;1.60;;;;;;;;;;5100135;28;20290;-71
2022/01/07 09:37:03;;;;;;;4.13;1.67;;;;;;;;;;5099969;28;20017;-70
2022/01/07 09:39:28;;;;;;;1.85;1.20;;;;;;;;;;5099114;28;20074;-71
2022/01/07 09:41:54;;;;;;;2.60;1.20;;;;;;;;;;5099784;28;20012;-70
2022/01/07 09:44:19;;;;;;;4.10;1.30;;;;;;;;;;5098954;28;20049;-70
2022/01/07 09:46:45;;;;;;;3.70;1.20;;;;;;;;;;5098905;28;20072;-70
2022/01/07 09:49:10;;;;;;;4.30;1.60;;;;;;;;;;5099390;28;20017;-71
2022/01/07 09:51:41;;;;;;;3.65;1.45;;;;;;;;;;5098603;28;20249;-70
2022/01/07 09:54:07;;;;;;;10.40;1.40;;;;;;;;;;5099823;28;20039;-71
2022/01/07 09:56:33;;;;;;;5.18;1.58;;;;;;;;;;5099763;28;20012;-71
2022/01/07 09:58:58;;;;;;;2.33;1.00;;;;;;;;;;5099557;28;20000;-70
2022/01/07 10:01:25;;;;;;;4.75;1.20;;;;;;;;;;5099638;28;20008;-70
2022/01/07 10:03:51;;;;;;;1.95;0.90;;;;;;;;;;5099695;28;20032;-71
2022/01/07 10:06:22;;;;;;;3.38;1.00;;;;;;;;;;5099464;28;20016;-70
2022/01/07 10:09:10;;;;;;;2.28;1.33;;;;;;;;;;5099412;28;20004;-70
2022/01/07 10:11:36;;;;;;;2.88;1.52;;;;;;;;;;5098496;28;20004;-70
2022/01/07 10:14:21;;;;;;;3.90;1.20;;;;;;;;;;5115628;28;20009;-71
2022/01/07 10:16:52;;;;;;;2.65;1.10;;;;;;;;;;5099396;28;20016;-70
2022/01/07 10:19:49;;;;;;;7.43;1.98;;;;;;;;;;5099351;28;20005;-70
2022/01/07 10:22:16;;;;;;;7.75;1.60;;;;;;;;;;5094795;28;20030;-70
2022/01/07 10:24:56;;;;;;;4.50;1.52;;;;;;;;;;5099206;28;20024;-71
2022/01/07 10:27:24;;;;;;;2.33;1.20;;;;;;;;;;5098353;28;20016;-71
2022/01/07 10:29:50;;;;;;;4.93;1.52;;;;;;;;;;5099277;28;20000;-70
2022/01/07 10:32:19;;;;;;;2.70;1.40;;;;;;;;;;5098962;28;20024;-71
2022/01/07 10:35:06;;;;;;;3.67;1.23;;;;;;;;;;5099051;28;20024;-71
2022/01/07 10:37:33;;;;;;;2.75;1.30;;;;;;;;;;5098824;28;20078;-71
2022/01/07 10:39:59;;;;;;;6.03;1.38;;;;;;;;;;5098855;28;20008;-71
2022/01/07 10:42:25;;;;;;;4.68;1.05;;;;;;;;;;5097992;28;20015;-71
2022/01/07 10:44:59;;;;;;;2.97;1.40;;;;;;;;;;5098859;28;20019;-71
2022/01/07 10:47:25;;;;;;;;;;;;;;;;;;5099043;28;20135;-71
2022/01/07 10:50:10;;;;;;;2.20;1.25;;;;;;;;;;5098743;28;19900;-71
2022/01/07 10:52:36;;;;;;;2.38;1.05;;;;;;;;;;5097740;28;20016;-71
2022/01/07 10:55:13;;;;;;;2.45;1.10;;;;;;;;;;5098603;28;20032;-71
2022/01/07 10:57:41;;;;;;;1.58;0.98;;;;;;;;;;5097752;28;20035;-71
2022/01/07 11:00:09;;;;;;;6.03;1.30;;;;;;;;;;5098333;28;20018;-70
2022/01/07 11:02:35;;;;;;;3.10;1.17;;;;;;;;;;5098132;28;20012;-70
2022/01/07 11:05:01;;;;;;;3.33;1.00;;;;;;;;;;5098462;28;20019;-71
2022/01/07 11:07:28;;;;;;;2.67;1.30;;;;;;;;;;5097614;28;20017;-71
2022/01/07 11:09:55;;;;;;;2.53;1.05;;;;;;;;;;5098350;28;20076;-71
2022/01/07 11:12:21;;;;;;;3.72;0.95;;;;;;;;;;5098125;28;20043;-71
2022/01/07 11:14:47;;;;;;;2.10;1.00;;;;;;;;;;5098258;28;20111;-71
2022/01/07 11:17:20;;;;;;;2.88;0.95;;;;;;;;;;5097510;28;20022;-71
2022/01/07 11:19:51;;;;;;;1.92;1.15;;;;;;;;;;5097842;28;20071;-71
2022/01/07 11:22:19;;;;;;;3.13;1.17;;;;;;;;;;5097690;28;20068;-71
2022/01/07 11:24:51;;;;;;;2.90;1.05;;;;;;;;;;5097341;28;20012;-71
2022/01/07 11:27:17;;;;;;;4.40;1.10;;;;;;;;;;5097655;28;20020;-70
2022/01/07 11:30:02;;;;;;;2.75;1.25;;;;;;;;;;5097959;28;20038;-71
2022/01/07 11:32:40;;;;;;;4.75;1.10;;;;;;;;;;5097687;28;20047;-71
2022/01/07 11:35:21;;;;;;;2.88;0.95;;;;;;;;;;5097992;28;20020;-71
2022/01/07 11:37:48;;;;;;;4.40;0.90;;;;;;;;;;5096933;28;20033;-71
2022/01/07 11:40:43;;;;;;;3.60;1.20;;;;;;;;;;5097966;28;20064;-71
2022/01/07 11:43:18;;;;;;;1.73;0.90;;;;;;;;;;5097823;28;20050;-71
2022/01/07 11:45:43;;;;;;;2.00;0.98;;;;;;;;;;5097136;28;20008;-71
2022/01/07 11:48:08;;;;;;;2.58;1.15;;;;;;;;;;5097110;28;20004;-72
2022/01/07 11:51:13;;;;;;;3.65;1.13;;;;;;;;;;5097797;28;20017;-72
2022/01/07 11:53:38;;;;;;;3.05;1.10;;;;;;;;;;5096352;28;20032;-72
2022/01/07 11:56:05;;;;;;;2.92;1.35;;;;;;;;;;5097761;28;20021;-72
2022/01/07 11:58:43;;;;;;;4.70;1.48;;;;;;;;;;5097705;28;20036;-72
2022/01/07 12:01:29;;;;;;;4.18;1.35;;;;;;;;;;5097644;28;20024;-72
2022/01/07 12:04:12;;;;;;;3.13;1.20;;;;;;;;;;5097646;28;20107;-72
2022/01/07 12:06:38;;;;;;;5.47;1.67;;;;;;;;;;5097642;28;20051;-72
2022/01/07 12:09:10;;;;;;;1.83;1.25;;;;;;;;;;5097674;28;20008;-72
2022/01/07 12:11:39;;;;;;;4.10;1.40;;;;;;;;;;5097529;28;20028;-72
2022/01/07 12:14:18;;;;;;;6.65;1.48;;;;;;;;;;5098465;28;20013;-71
2022/01/07 12:16:52;;;;;;;3.28;1.25;;;;;;;;;;5100967;28;20036;-71
2022/01/07 12:19:25;;;;;;;4.63;1.20;;;;;;;;;;5101058;28;20016;-71
2022/01/07 12:21:53;;;;;;;5.75;1.52;;;;;;;;;;5100909;28;20021;-72
2022/01/07 12:24:26;;;;;;;3.63;1.42;;;;;;;;;;5100734;28;20020;-72
2022/01/07 12:27:02;;;;;;;3.67;1.58;;;;;;;;;;5252201;22;20032;-72
2022/01/07 12:29:34;;;;;;;5.38;1.48;;;;;;;;;;5101067;28;20043;-71
2022/01/07 12:38:57;;;;;;;2.78;1.27;;;;;;;;;;6172829;23;20009;-69
2022/01/07 12:41:22;;;;;;;5.63;1.58;;;;;;;;;;5101357;23;20041;-71
2022/01/07 12:43:47;;;;;;;4.07;1.73;;;;;;;;;;5032562;28;20010;-72
2022/01/07 12:46:17;;;;;;;3.50;1.60;;;;;;;;;;5024052;28;20147;-72
2022/01/07 12:48:43;;;;;;;4.38;1.50;;;;;;;;;;5022847;28;20077;-72
2022/01/07 12:51:08;;;;;;;3.55;1.58;;;;;;;;;;5036362;28;20022;-72
2022/01/07 12:53:34;;;;;;;3.10;1.30;;;;;;;;;;5040831;28;20032;-72
2022/01/07 12:56:23;;;;;;;2.55;1.50;;;;;;;;;;5034545;28;20033;-71
2022/01/07 12:58:48;;;;;;;4.35;1.60;;;;;;;;;;5021123;28;20017;-72
2022/01/07 13:01:23;;;;;;;4.43;1.52;;;;;;;;;;5036795;28;20022;-72
2022/01/07 13:04:05;;;;;;;4.13;1.42;;;;;;;;;;5021029;28;20022;-72
2022/01/07 13:06:36;;;;;;;2.15;1.40;;;;;;;;;;5036772;28;20018;-72
2022/01/07 13:09:01;;;;;;;3.55;1.30;;;;;;;;;;5032111;28;20025;-72
2022/01/07 13:11:29;;;;;;;3.25;1.40;;;;;;;;;;5020939;28;20022;-72
2022/01/07 13:14:05;;;;;;;4.70;1.52;;;;;;;;;;5020963;28;20026;-72
2022/01/07 13:16:31;;;;;;;6.07;1.85;;;;;;;;;;5020897;28;20022;-72
2022/01/07 13:19:17;;;;;;;7.32;1.80;;;;;;;;;;5020908;28;20106;-72
2022/01/07 13:21:43;;;;;;;5.13;1.55;;;;;;;;;;5003325;28;20034;-72
2022/01/07 13:24:18;;;;;;;10.07;2.08;;;;;;;;;;5020807;28;20025;-72
2022/01/07 13:26:45;;;;;;;4.68;1.70;;;;;;;;;;5019263;28;20022;-72
2022/01/07 13:29:27;;;;;;;7.97;2.10;;;;;;;;;;5020720;28;20010;-72
2022/01/07 13:32:02;;;;;;;3.67;1.45;;;;;;;;;;5020700;28;20057;-72
2022/01/07 13:34:32;;;;;;;2.78;1.55;;;;;;;;;;5020158;28;20015;-71
2022/01/07 13:37:04;;;;;;;3.35;1.73;;;;;;;;;;5020412;28;20021;-73
2022/01/07 13:39:44;;;;;;;4.30;2.03;;;;;;;;;;5020332;28;20026;-72
2022/01/07 13:42:11;;;;;;;5.90;1.92;;;;;;;;;;5020270;28;20071;-72
2022/01/07 13:44:49;;;;;;;4.75;1.80;;;;;;;;;;5020264;28;20026;-72
2022/01/07 13:47:20;;;;;;;10.40;1.80;;;;;;;;;;5019712;28;20042;-71
2022/01/07 13:49:45;;;;;;;5.50;2.10;;;;;;;;;;5013712;28;20014;-72
2022/01/07 13:52:10;;;;;;;4.38;1.70;;;;;;;;;;5001438;28;20014;-73
2022/01/07 13:54:42;;;;;;;6.85;2.15;;;;;;;;;;5019099;28;20030;-73
2022/01/07 13:57:11;;;;;;;5.05;1.98;;;;;;;;;;5017780;28;20011;-71
2022/01/07 13:59:44;;;;;;;4.75;2.15;;;;;;;;;;5015818;28;20045;-71
2022/01/07 14:02:17;;;;;;;4.82;2.20;;;;;;;;;;5014691;28;20049;-72
2022/01/07 14:04:55;;;;;;;6.28;2.78;;;;;;;;;;5019695;28;20078;-71
2022/01/07 14:07:34;;;;;;;4.03;1.88;;;;;;;;;;5017468;28;20026;-72
2022/01/07 14:10:11;;;;;;;6.07;2.13;;;;;;;;;;5030645;28;20192;-71
2022/01/07 14:12:45;;;;;;;3.53;1.70;;;;;;;;;;5018667;28;20029;-71
2022/01/07 14:15:11;;;;;;;;;;;;;;;;;;5016823;28;20018;-72
2022/01/07 14:17:38;;;;;;;4.55;1.88;;;;;;;;;;5019697;28;19901;-72
2022/01/07 14:20:05;;;;;;;4.20;1.92;;;;;;;;;;5018327;28;20010;-71
2022/01/07 14:22:34;;;;;;;8.10;2.30;;;;;;;;;;5018824;28;20018;-71
2022/01/07 14:25:01;;;;;;;4.07;1.98;;;;;;;;;;5019262;28;20015;-72
2022/01/07 14:27:31;;;;;;;4.57;2.22;;;;;;;;;;5018229;28;20037;-72
2022/01/07 14:29:57;;;;;;;6.85;3.08;;;;;;;;;;5018125;28;20014;-71
2022/01/07 14:32:23;;;;;;;6.70;2.10;;;;;;;;;;5018131;28;20025;-72
2022/01/07 14:34:49;;;;;;;6.07;2.55;;;;;;;;;;5018415;28;20014;-72
2022/01/07 14:37:15;;;;;;;3.65;2.10;;;;;;;;;;5018065;28;20086;-71
2022/01/07 14:39:41;;;;;;;6.20;2.70;;;;;;;;;;5009502;28;20018;-71
2022/01/07 14:42:06;;;;;;;4.07;2.45;;;;;;;;;;5001739;28;20026;-72
2022/01/07 14:44:32;;;;;;;6.72;2.45;;;;;;;;;;5018367;28;20033;-72
2022/01/07 14:46:57;;;;;;;4.93;2.03;;;;;;;;;;5018552;28;20078;-72
2022/01/07 14:49:22;;;;;;;3.75;2.17;;;;;;;;;;5033691;28;20018;-71
2022/01/07 14:51:48;;;;;;;9.02;2.50;;;;;;;;;;5023301;28;20022;-72
2022/01/07 14:54:13;;;;;;;7.60;2.20;;;;;;;;;;5018449;28;20025;-72
2022/01/07 14:56:39;;;;;;;7.32;2.20;;;;;;;;;;5018236;28;20066;-72
2022/01/07 14:59:04;;;;;;;6.22;2.10;;;;;;;;;;5018528;28;20090;-71
2022/01/07 15:01:29;;;;;;;9.00;2.60;;;;;;;;;;5018129;28;20014;-71